Time;durP1;ratioP1;P1;durP2;ratioP2;P2;SDS_P1;SDS_P2;PMS_P1;PMS_P2;Temp;Humidity;BMP_temperature;BMP_pressure;BME280_temperature;BME280_humidity;BME280_pressure;Samples;Min_cycle;Max_cycle;Signal;HPM_P1;HPM_P2
2021/11/17 02:26:40;;;;;;;35.00;12.63;;;;;;;9.53;62.16;101924.19;5015521;28;123826;-68
2021/11/17 02:29:32;;;;;;;33.50;12.70;;;;;;;9.53;62.19;101924.19;5017631;28;119357;-69
2021/11/17 02:32:20;;;;;;;32.00;12.00;;;;;;;9.55;62.19;101919.72;5017401;28;119134;-69
2021/11/17 02:35:10;;;;;;;30.33;12.68;;;;;;;9.55;61.95;101932.94;5022326;28;124036;-69
2021/11/17 02:37:49;;;;;;;37.30;12.82;;;;;;;9.57;62.17;101929.38;5004261;28;123371;-69
2021/11/17 02:40:38;;;;;;;34.25;13.07;;;;;;;9.59;61.95;101930.22;5015651;28;119481;-69
2021/11/17 02:43:34;;;;;;;32.97;12.65;;;;;;;9.61;62.23;101931.06;5019414;28;119154;-69
2021/11/17 02:46:26;;;;;;;33.75;12.65;;;;;;;9.61;62.06;101920.50;5012552;28;124231;-68
2021/11/17 02:49:08;;;;;;;35.15;12.35;;;;;;;9.60;62.37;101918.72;5008000;28;124212;-70
2021/11/17 02:52:09;;;;;;;38.72;12.95;;;;;;;9.60;62.30;101918.72;5020647;28;119410;-68
2021/11/17 02:54:51;;;;;;;34.72;11.93;;;;;;;9.61;62.33;101920.50;5020359;28;120340;-69
2021/11/17 02:57:29;;;;;;;37.85;13.02;;;;;;;9.62;61.88;101916.91;5010204;28;124009;-68
2021/11/17 03:00:27;;;;;;;35.00;12.25;;;;;;;9.63;62.19;101918.66;5013887;28;124125;-68
2021/11/17 03:03:22;;;;;;;39.53;12.10;;;;;;;9.65;62.29;101932.72;5014950;28;119755;-69
2021/11/17 03:06:08;;;;;;;32.90;12.27;;;;;;;9.66;62.25;101934.44;5006279;28;119017;-69
2021/11/17 03:08:41;;;;;;;34.50;12.77;;;;;;;9.68;61.92;101927.34;5022569;28;124953;-68
2021/11/17 03:11:17;;;;;;;35.60;12.50;;;;;;;9.68;61.84;101932.63;5016903;28;124104;-69
2021/11/17 03:13:47;;;;;;;34.13;12.02;;;;;;;9.70;62.32;101937.00;5012687;28;119622;-68
2021/11/17 03:16:26;;;;;;;34.90;12.18;;;;;;;9.74;61.97;101932.50;5011015;28;119743;-68
2021/11/17 03:19:18;;;;;;;37.53;12.23;;;;;;;9.77;62.26;101932.41;5012110;28;124326;-69
2021/11/17 03:21:53;;;;;;;33.17;12.38;;;;;;;9.78;61.81;101928.88;5012388;28;123879;-68
2021/11/17 03:24:46;;;;;;;38.42;13.10;;;;;;;9.79;61.89;101935.03;5015085;28;119333;-70
2021/11/17 03:27:34;;;;;;;34.00;12.55;;;;;;;9.77;61.94;101936.84;4997986;28;118346;-68
2021/11/17 03:30:16;;;;;;;41.22;12.48;;;;;;;9.76;61.88;101936.00;5016767;28;124125;-68
2021/11/17 03:32:56;;;;;;;35.95;12.95;;;;;;;9.75;61.80;101926.28;5011411;28;124502;-68
2021/11/17 03:35:54;;;;;;;35.45;11.70;;;;;;;9.77;61.69;101936.84;5012422;28;119389;-71
2021/11/17 03:38:48;;;;;;;37.60;12.00;;;;;;;9.77;61.91;101926.28;5022459;28;118926;-68
2021/11/17 03:42:04;;;;;;;36.08;13.15;;;;;;;9.77;61.94;101916.53;5013559;28;124396;-68
2021/11/17 03:44:56;;;;;;;35.90;12.40;;;;;;;9.78;61.74;101902.44;5004384;28;124590;-68
2021/11/17 03:47:57;;;;;;;29.58;11.85;;;;;;;9.78;62.01;101922.72;5023458;28;118736;-68
2021/11/17 03:50:30;;;;;;;33.38;12.23;;;;;;;9.79;62.10;101935.91;5008481;28;119476;-68
2021/11/17 03:53:09;;;;;;;34.83;11.85;;;;;;;9.78;61.99;101928.88;5021781;28;124269;-68
2021/11/17 03:55:42;;;;;;;33.63;12.27;;;;;;;9.78;61.97;101928.88;5010936;28;124643;-68
2021/11/17 03:58:36;;;;;;;34.70;11.82;;;;;;;9.78;62.05;101928.88;5017382;28;120015;-68
2021/11/17 04:01:22;;;;;;;33.67;11.73;;;;;;;9.78;61.96;101918.28;5013401;28;118833;-68
2021/11/17 04:04:16;;;;;;;34.30;12.35;;;;;;;9.76;61.83;101920.13;5013078;28;124745;-68
2021/11/17 04:07:17;;;;;;;31.60;11.43;;;;;;;9.76;61.80;101917.47;5011986;28;124793;-69
2021/11/17 04:10:32;;;;;;;28.38;10.70;;;;;;;9.75;62.08;101913.06;5015894;28;119478;-68
2021/11/17 04:13:11;;;;;;;35.30;11.88;;;;;;;9.75;61.96;101918.38;4989146;28;118945;-69
2021/11/17 04:15:50;;;;;;;35.20;11.57;;;;;;;9.78;61.86;101920.94;5012843;28;124413;-68
2021/11/17 04:18:24;;;;;;;35.45;11.73;;;;;;;9.78;62.12;101902.44;5033885;27;122693;-68
2021/11/17 04:21:06;;;;;;;35.95;11.95;;;;;;;9.78;62.07;101899.78;5011624;28;118371;-68
2021/11/17 04:23:33;;;;;;;31.52;11.82;;;;;;;9.79;62.19;101909.44;5012566;28;119037;-68
2021/11/17 04:26:38;;;;;;;32.85;11.63;;;;;;;9.81;62.02;101925.28;5015788;28;123984;-69
2021/11/17 04:29:26;;;;;;;31.13;11.13;;;;;;;9.83;61.89;101929.66;5006118;28;123860;-68
2021/11/17 04:32:07;;;;;;;33.40;11.80;;;;;;;9.82;62.22;101924.38;5007433;28;119063;-68
2021/11/17 04:34:49;;;;;;;38.90;12.23;;;;;;;9.82;61.88;101930.53;5011445;28;118104;-68
2021/11/17 04:37:31;;;;;;;37.15;11.55;;;;;;;9.84;62.13;101917.28;5033100;27;123223;-68
2021/11/17 04:40:45;;;;;;;32.17;11.73;;;;;;;9.83;62.15;101913.78;5019504;28;125114;-68
2021/11/17 04:43:25;;;;;;;35.70;11.85;;;;;;;9.84;61.98;101920.78;5020435;28;120033;-68
2021/11/17 04:46:18;;;;;;;33.30;11.10;;;;;;;9.84;62.12;101923.44;5004699;28;118866;-68
2021/11/17 04:49:33;;;;;;;31.65;11.13;;;;;;;9.85;61.97;101914.59;5018048;28;123341;-67
2021/11/17 04:52:03;;;;;;;34.15;11.60;;;;;;;9.87;62.15;101918.06;5016588;27;122624;-68
2021/11/17 04:54:48;;;;;;;34.95;11.70;;;;;;;9.89;61.89;101910.97;5014917;28;119022;-68
2021/11/17 04:57:37;;;;;;;40.15;12.70;;;;;;;9.89;61.81;101916.25;5020769;28;118882;-68
2021/11/17 05:00:26;;;;;;;29.95;11.57;;;;;;;9.89;61.78;101916.25;5011640;28;124358;-68
2021/11/17 05:03:15;;;;;;;35.47;11.85;;;;;;;9.89;62.00;101910.97;5013785;28;124568;-68
2021/11/17 05:05:49;;;;;;;29.77;11.15;;;;;;;9.90;61.93;101901.25;4993531;28;119125;-68
2021/11/17 05:08:38;;;;;;;37.78;12.20;;;;;;;9.90;61.96;101891.50;5014575;28;118903;-68
2021/11/17 05:11:43;;;;;;;30.95;11.45;;;;;;;9.88;61.79;101877.47;5010505;28;124723;-68
2021/11/17 05:14:34;;;;;;;38.92;12.27;;;;;;;9.86;62.05;101889.88;5014580;28;123951;-68
2021/11/17 05:17:02;;;;;;;35.67;12.10;;;;;;;9.87;62.10;101885.44;5011311;28;119487;-68
2021/11/17 05:19:42;;;;;;;35.08;11.77;;;;;;;9.87;62.18;101864.25;5009950;28;119175;-69
2021/11/17 05:22:32;;;;;;;36.78;11.90;;;;;;;9.88;62.19;101874.81;5011692;28;124001;-68
2021/11/17 05:25:47;;;;;;;34.97;11.70;;;;;;;9.86;62.01;101873.13;5035498;27;122877;-68
2021/11/17 05:28:38;;;;;;;34.65;11.82;;;;;;;9.86;62.01;101863.41;5009636;28;119617;-68
2021/11/17 05:31:12;;;;;;;34.03;10.82;;;;;;;9.86;62.03;101868.69;5008811;28;121329;-68
2021/11/17 05:34:12;;;;;;;33.33;11.43;;;;;;;9.87;61.86;101875.75;5011159;28;124297;-68
2021/11/17 05:36:54;;;;;;;34.95;10.85;;;;;;;9.88;62.01;101876.59;5002040;27;123832;-68
2021/11/17 05:39:47;;;;;;;34.40;11.35;;;;;;;9.88;61.88;101877.47;5012234;28;120274;-68
2021/11/17 05:42:38;;;;;;;38.03;12.15;;;;;;;9.87;62.18;101875.75;5026369;28;119768;-68
2021/11/17 05:45:34;;;;;;;36.20;11.43;;;;;;;9.88;62.04;101871.31;5016830;28;123901;-69
2021/11/17 05:48:14;;;;;;;34.88;11.50;;;;;;;9.87;61.86;101869.56;5008003;28;123584;-69
2021/11/17 05:50:51;;;;;;;34.75;12.30;;;;;;;9.87;62.12;101875.75;5011687;28;119710;-68
2021/11/17 05:53:38;;;;;;;32.05;11.85;;;;;;;9.86;61.95;101868.69;5017622;28;119642;-68
2021/11/17 05:56:43;;;;;;;37.97;12.15;;;;;;;9.86;61.70;101863.41;5012999;28;124015;-68
2021/11/17 05:59:10;;;;;;;36.20;11.10;;;;;;;9.86;61.96;101874.00;5014709;28;123861;-67
2021/11/17 06:01:46;;;;;;;36.35;11.48;;;;;;;9.86;61.70;101862.53;5014934;28;119488;-67
2021/11/17 06:04:13;;;;;;;35.10;11.68;;;;;;;9.85;61.86;101861.69;5012525;28;118735;-68
2021/11/17 06:06:40;;;;;;;34.35;12.05;;;;;;;9.84;62.20;101865.22;5020102;28;124494;-69
2021/11/17 06:09:08;;;;;;;33.85;11.95;;;;;;;9.83;61.67;101873.19;5020891;28;123004;-68
2021/11/17 06:11:39;;;;;;;34.50;11.98;;;;;;;9.81;62.06;101873.22;5011955;28;120020;-68
2021/11/17 06:14:10;;;;;;;36.03;12.27;;;;;;;9.79;61.95;101872.41;5014990;28;119483;-68
2021/11/17 06:16:42;;;;;;;37.10;13.32;;;;;;;9.79;61.95;101877.69;5017422;28;123999;-68
2021/11/17 06:19:11;;;;;;;37.45;11.70;;;;;;;9.80;62.08;101879.44;5016543;28;124331;-68
2021/11/17 06:21:41;;;;;;;42.15;12.85;;;;;;;9.81;61.87;101875.88;5021562;28;119945;-68
2021/11/17 06:24:12;;;;;;;36.15;11.95;;;;;;;9.81;62.14;101889.09;5014375;28;119154;-68
2021/11/17 06:26:42;;;;;;;37.47;11.85;;;;;;;9.81;62.05;101886.44;5015923;28;124746;-69
2021/11/17 06:29:19;;;;;;;33.95;11.90;;;;;;;9.81;62.16;101894.38;5014717;28;123518;-68
2021/11/17 06:31:48;;;;;;;36.80;12.13;;;;;;;9.83;62.00;101895.25;5023741;28;120615;-68
2021/11/17 06:34:23;;;;;;;32.15;11.23;;;;;;;9.83;62.12;101895.25;5009067;28;120758;-68
2021/11/17 06:36:51;;;;;;;35.13;11.90;;;;;;;9.83;62.23;101889.97;5019144;28;123835;-68
2021/11/17 06:39:18;;;;;;;37.85;12.23;;;;;;;9.86;62.50;101895.16;5021951;28;123709;-69
2021/11/17 06:41:46;;;;;;;38.13;12.95;;;;;;;9.88;62.43;101900.41;5025373;28;120196;-68
2021/11/17 06:44:14;;;;;;;39.05;13.00;;;;;;;9.89;62.37;101903.03;5023406;28;119077;-69
2021/11/17 06:46:42;;;;;;;39.45;12.20;;;;;;;9.90;62.33;101906.53;5027501;27;124247;-70
2021/11/17 06:49:09;;;;;;;37.78;12.27;;;;;;;9.94;62.33;101902.91;5027298;28;123763;-68
2021/11/17 06:51:36;;;;;;;40.42;13.30;;;;;;;9.93;62.34;101904.69;5024533;28;119304;-69
2021/11/17 06:54:04;;;;;;;36.85;11.77;;;;;;;9.98;62.51;101908.97;5014939;28;119102;-69
2021/11/17 06:56:32;;;;;;;38.63;12.77;;;;;;;9.99;62.33;101905.44;5027635;28;123940;-69
2021/11/17 06:58:59;;;;;;;36.75;12.35;;;;;;;9.99;62.23;101901.00;5028638;28;124874;-68
2021/11/17 07:01:26;;;;;;;37.85;12.43;;;;;;;10.01;62.32;101906.28;5027670;28;118111;-70
2021/11/17 07:03:54;;;;;;;35.88;11.70;;;;;;;10.02;62.24;101900.06;5020125;28;119490;-69
2021/11/17 07:06:21;;;;;;;37.40;12.43;;;;;;;10.04;62.42;101911.47;5028847;28;124174;-68
2021/11/17 07:08:48;;;;;;;39.72;12.70;;;;;;;10.06;62.48;101918.47;5011575;28;124048;-75
2021/11/17 07:11:15;;;;;;;35.42;12.20;;;;;;;10.07;62.43;101922.00;5015760;28;120227;-67
2021/11/17 07:13:43;;;;;;;35.78;12.45;;;;;;;10.08;62.45;101926.38;5016142;28;119471;-67
2021/11/17 07:16:10;;;;;;;38.00;12.43;;;;;;;10.11;62.43;101921.00;5011828;28;124568;-67
2021/11/17 07:18:38;;;;;;;35.10;12.43;;;;;;;10.14;62.29;101920.94;5014948;28;124017;-67
2021/11/17 07:21:07;;;;;;;34.08;11.85;;;;;;;10.16;62.56;101921.75;5023192;28;119266;-67
2021/11/17 07:23:34;;;;;;;38.83;12.27;;;;;;;10.19;62.44;101923.44;5007691;28;119745;-67
2021/11/17 07:26:02;;;;;;;37.78;12.40;;;;;;;10.19;62.49;101924.34;5014188;28;124982;-67
2021/11/17 07:28:30;;;;;;;35.15;12.38;;;;;;;10.21;62.19;101921.63;5007621;28;124614;-67
2021/11/17 07:30:57;;;;;;;40.03;12.95;;;;;;;10.22;62.27;101929.53;5009791;28;119081;-68
2021/11/17 07:33:25;;;;;;;35.50;12.35;;;;;;;10.23;62.45;101925.97;5008999;28;118985;-67
2021/11/17 07:35:53;;;;;;;38.45;12.38;;;;;;;10.26;62.51;101931.19;5010759;28;123853;-67
2021/11/17 07:38:23;;;;;;;33.25;11.52;;;;;;;10.28;62.47;101934.69;5028237;28;122630;-68
2021/11/17 07:40:51;;;;;;;36.33;12.57;;;;;;;10.30;62.40;101926.69;5015548;28;119330;-68
2021/11/17 07:43:22;;;;;;;34.08;12.25;;;;;;;10.32;62.59;101939.03;5016585;28;119479;-68
2021/11/17 07:45:51;;;;;;;36.47;12.60;;;;;;;10.33;62.60;101932.78;5018719;28;123424;-68
2021/11/17 07:48:21;;;;;;;38.90;12.60;;;;;;;10.35;62.58;101929.25;5027657;28;123730;-69
2021/11/17 07:50:49;;;;;;;36.03;12.82;;;;;;;10.38;62.63;101929.16;5026137;28;118697;-68
2021/11/17 07:53:18;;;;;;;36.45;12.15;;;;;;;10.39;62.51;101930.91;5016286;28;119557;-68
2021/11/17 07:55:47;;;;;;;37.13;12.65;;;;;;;10.41;62.53;101939.66;5024229;28;124088;-67
2021/11/17 07:58:15;;;;;;;37.17;12.75;;;;;;;10.43;62.62;101932.56;5024780;28;124614;-67
2021/11/17 08:00:48;;;;;;;34.38;11.75;;;;;;;10.43;62.59;101928.13;5023873;28;120030;-68
2021/11/17 08:03:17;;;;;;;39.63;11.90;;;;;;;10.46;62.63;101927.19;5028391;28;118234;-68
2021/11/17 08:05:47;;;;;;;35.20;12.52;;;;;;;10.47;63.07;101918.31;5026213;28;124159;-68
2021/11/17 08:08:16;;;;;;;37.45;13.55;;;;;;;10.49;62.44;101917.38;5025716;28;124149;-67
2021/11/17 08:10:45;;;;;;;38.63;13.13;;;;;;;10.52;62.63;101929.66;5026899;28;120116;-67
2021/11/17 08:13:12;;;;;;;38.67;12.30;;;;;;;10.56;62.72;101922.50;5027541;28;120014;-68
2021/11/17 08:15:40;;;;;;;36.25;12.77;;;;;;;10.59;62.53;101927.72;5014092;28;124125;-68
2021/11/17 08:18:08;;;;;;;37.70;13.43;;;;;;;10.63;62.78;101935.53;5020665;28;124476;-68
2021/11/17 08:20:36;;;;;;;35.28;12.27;;;;;;;10.65;62.66;101949.59;5025728;28;118946;-68
2021/11/17 08:23:03;;;;;;;35.08;12.05;;;;;;;10.67;62.78;101953.06;5029502;28;118259;-67
2021/11/17 08:25:34;;;;;;;35.40;12.85;;;;;;;10.68;62.46;101954.81;5022607;28;123958;-67
2021/11/17 08:28:02;;;;;;;40.28;14.05;;;;;;;10.71;62.82;101960.03;5008166;28;122618;-67
2021/11/17 08:30:32;;;;;;;36.03;13.35;;;;;;;10.74;62.94;101968.78;5019840;28;119439;-67
2021/11/17 08:33:01;;;;;;;35.58;12.63;;;;;;;10.76;62.73;101967.00;5021624;28;118909;-67
2021/11/17 08:35:35;;;;;;;37.58;13.52;;;;;;;10.80;62.71;101968.66;5021055;28;124064;-67
2021/11/17 08:38:05;;;;;;;34.83;13.65;;;;;;;10.83;62.95;101968.53;5013073;28;123807;-70
2021/11/17 08:40:38;;;;;;;37.67;13.18;;;;;;;10.85;62.75;101972.00;5025929;28;119810;-68
2021/11/17 08:43:06;;;;;;;33.65;12.68;;;;;;;10.87;62.81;101971.06;5028999;28;119407;-67
2021/11/17 08:45:35;;;;;;;39.58;12.73;;;;;;;10.90;62.83;101968.31;5026972;28;125388;-67
2021/11/17 08:48:04;;;;;;;38.67;13.50;;;;;;;10.93;62.72;101959.44;5027394;28;124688;-67
2021/11/17 08:50:33;;;;;;;37.00;13.10;;;;;;;10.96;62.73;101969.94;5019133;28;119282;-67
2021/11/17 08:53:04;;;;;;;39.45;13.68;;;;;;;10.99;63.03;101969.84;5018697;28;120350;-69
2021/11/17 08:55:31;;;;;;;40.40;13.15;;;;;;;11.02;63.05;101961.81;5009383;28;123902;-68
2021/11/17 08:58:00;;;;;;;42.58;13.77;;;;;;;11.05;62.94;101959.06;5007736;28;123831;-68
2021/11/17 09:00:28;;;;;;;40.58;14.25;;;;;;;11.08;62.94;101953.69;5022616;28;119664;-68
2021/11/17 09:02:56;;;;;;;40.47;13.32;;;;;;;11.13;62.81;101963.28;5008459;28;119676;-68
2021/11/17 09:05:28;;;;;;;40.63;13.52;;;;;;;11.16;62.84;101960.53;5008425;28;125046;-68
2021/11/17 09:07:58;;;;;;;42.97;13.88;;;;;;;11.18;63.01;101958.72;5009186;28;124082;-68
2021/11/17 09:10:29;;;;;;;42.28;13.75;;;;;;;11.21;63.04;101948.03;5006536;28;119159;-68
2021/11/17 09:12:57;;;;;;;39.88;14.25;;;;;;;11.25;63.14;101949.66;5029246;28;118499;-69
2021/11/17 09:15:30;;;;;;;40.20;14.45;;;;;;;11.30;62.96;101958.34;5014620;28;124104;-68
2021/11/17 09:17:58;;;;;;;46.42;14.73;;;;;;;11.34;62.91;101965.31;5026280;28;124452;-68
2021/11/17 09:20:28;;;;;;;39.40;14.23;;;;;;;11.37;63.12;101965.19;5019072;28;119152;-69
2021/11/17 09:22:55;;;;;;;45.97;14.35;;;;;;;11.39;63.12;101973.97;5032237;28;119134;-68
2021/11/17 09:25:24;;;;;;;43.63;14.45;;;;;;;11.39;62.95;101979.28;5017087;28;124097;-69
2021/11/17 09:27:52;;;;;;;46.10;15.05;;;;;;;11.43;63.13;101986.25;5029315;28;124104;-68
2021/11/17 09:30:23;;;;;;;50.63;15.70;;;;;;;11.45;62.96;101979.13;5015067;28;119649;-68
2021/11/17 09:32:52;;;;;;;47.88;15.20;;;;;;;11.49;63.01;101986.06;5018313;28;118925;-68
2021/11/17 09:35:21;;;;;;;46.22;14.82;;;;;;;11.53;63.19;101988.59;5018186;28;123286;-68
2021/11/17 09:37:52;;;;;;;43.63;14.80;;;;;;;11.54;63.25;101983.25;5014492;28;125326;-68
2021/11/17 09:40:23;;;;;;;53.38;16.13;;;;;;;11.57;63.21;101992.91;5028717;28;119277;-68
2021/11/17 09:42:51;;;;;;;44.40;14.00;;;;;;;11.59;63.17;101988.44;5012788;28;120275;-69
2021/11/17 09:45:21;;;;;;;43.40;14.93;;;;;;;11.62;63.11;102001.59;5008667;28;124327;-68
2021/11/17 09:47:50;;;;;;;50.70;14.80;;;;;;;11.64;63.38;101999.75;5020538;27;124890;-68
2021/11/17 09:50:43;;;;;;;47.75;15.43;;;;;;;11.66;63.00;102003.25;5018432;28;120904;-68
2021/11/17 09:53:28;;;;;;;43.88;15.20;;;;;;;11.68;63.05;102002.28;5013133;28;118849;-68
2021/11/17 09:56:02;;;;;;;49.20;14.23;;;;;;;11.71;63.16;102001.31;5019812;28;123615;-69
2021/11/17 09:58:40;;;;;;;44.90;14.55;;;;;;;11.74;63.22;102000.38;5009192;28;123623;-68
2021/11/17 10:01:28;;;;;;;50.65;15.68;;;;;;;11.75;63.13;102002.94;5010106;28;119907;-68
2021/11/17 10:04:26;;;;;;;52.70;15.57;;;;;;;11.77;63.41;102017.06;5010861;28;118751;-69
2021/11/17 10:09:55;;;;;;;49.05;14.85;;;;;;;11.82;63.46;102014.25;5011936;28;123752;-68
2021/11/17 10:15:21;;;;;;;46.92;15.43;;;;;;;11.88;63.28;102009.63;5010741;28;118848;-69
2021/11/17 10:18:32;;;;;;;48.22;15.65;;;;;;;11.88;63.33;102009.63;5010390;28;123976;-69
2021/11/17 10:21:12;;;;;;;48.95;16.20;;;;;;;11.92;63.35;102009.53;5025176;28;123175;-69
2021/11/17 10:24:03;;;;;;;49.88;15.05;;;;;;;11.94;63.45;102013.00;5023378;28;119338;-68
2021/11/17 10:26:36;;;;;;;54.58;16.33;;;;;;;11.97;63.42;102007.63;5010261;28;119832;-69
2021/11/17 10:29:27;;;;;;;52.35;16.15;;;;;;;12.00;63.59;102003.09;5015888;28;124170;-69
2021/11/17 10:32:18;;;;;;;53.78;15.70;;;;;;;12.04;63.58;101998.53;5017090;28;123688;-68
2021/11/17 10:34:55;;;;;;;47.35;15.82;;;;;;;12.06;63.35;102012.63;5018316;28;121940;-69
2021/11/17 10:37:40;;;;;;;54.30;16.73;;;;;;;12.07;63.52;102009.03;5010691;28;120234;-69
2021/11/17 10:40:24;;;;;;;49.88;15.82;;;;;;;12.08;63.72;102021.41;5009303;28;124481;-68
2021/11/17 10:43:02;;;;;;;47.00;14.02;;;;;;;12.10;63.58;102019.56;5018864;28;123705;-69
2021/11/17 10:45:39;;;;;;;56.38;15.27;;;;;;;12.13;63.51;102018.59;5014467;28;120323;-68
2021/11/17 10:48:21;;;;;;;45.92;15.00;;;;;;;12.14;63.56;102018.56;5010900;28;119374;-68
2021/11/17 10:50:48;;;;;;;47.92;15.05;;;;;;;12.18;63.52;102011.34;5011665;28;123826;-68
2021/11/17 10:53:28;;;;;;;59.38;17.45;;;;;;;12.22;63.66;102018.31;5013027;28;123682;-68
2021/11/17 10:56:01;;;;;;;56.17;17.15;;;;;;;12.25;63.69;102019.06;5024232;28;119326;-68
2021/11/17 10:58:32;;;;;;;62.67;16.38;;;;;;;12.31;63.95;102022.44;5029349;28;117858;-68
2021/11/17 11:01:14;;;;;;;57.90;16.33;;;;;;;12.34;63.67;102023.22;5027169;28;125530;-68
2021/11/17 11:03:50;;;;;;;55.00;16.00;;;;;;;12.38;63.92;102029.31;5028144;28;124511;-68
2021/11/17 11:06:29;;;;;;;59.35;17.35;;;;;;;12.38;63.69;102031.97;5027813;28;119167;-69
2021/11/17 11:09:08;;;;;;;53.30;17.13;;;;;;;12.44;63.86;102034.41;5029617;28;118344;-68
2021/11/17 11:11:41;;;;;;;54.22;16.90;;;;;;;12.46;63.88;102037.88;5027328;28;124245;-68
2021/11/17 11:14:28;;;;;;;55.92;16.40;;;;;;;12.48;63.81;102041.34;5028045;28;123818;-68
2021/11/17 11:17:22;;;;;;;57.38;16.23;;;;;;;12.50;63.63;102039.50;5015371;28;120069;-68
2021/11/17 11:19:50;;;;;;;52.78;16.90;;;;;;;12.51;63.97;102035.94;5014213;28;119140;-69
2021/11/17 11:22:23;;;;;;;54.38;17.63;;;;;;;12.54;63.82;102038.47;5014240;28;123862;-69
2021/11/17 11:24:57;;;;;;;56.53;16.95;;;;;;;12.57;64.01;102035.72;5017060;28;123751;-69
2021/11/17 11:27:30;;;;;;;52.90;17.53;;;;;;;12.61;63.93;102037.34;5017080;28;119287;-69
2021/11/17 11:30:03;;;;;;;54.85;16.98;;;;;;;12.65;64.00;102033.66;5015555;28;119071;-69
2021/11/17 11:32:30;;;;;;;53.78;16.00;;;;;;;12.70;63.93;102025.53;5018279;28;124250;-69
2021/11/17 11:35:02;;;;;;;48.58;16.58;;;;;;;12.75;64.01;102022.69;5022812;28;124198;-69
2021/11/17 11:37:32;;;;;;;48.60;15.00;;;;;;;12.80;64.24;102020.75;5012000;28;120022;-69
2021/11/17 11:40:07;;;;;;;52.72;16.25;;;;;;;12.86;64.11;102025.84;5010088;28;119108;-68
2021/11/17 11:42:53;;;;;;;46.30;15.05;;;;;;;12.92;64.05;102030.97;5011440;28;125398;-69
2021/11/17 11:45:26;;;;;;;43.55;14.88;;;;;;;12.98;64.09;102041.38;5011520;28;123940;-68
2021/11/17 11:48:02;;;;;;;42.67;15.38;;;;;;;13.03;64.30;102034.13;5021665;28;119719;-69
2021/11/17 11:50:35;;;;;;;44.72;15.05;;;;;;;13.10;64.28;102033.88;5022622;28;119037;-68
2021/11/17 11:53:08;;;;;;;45.42;15.07;;;;;;;13.14;64.40;102030.19;5016100;28;123894;-68
2021/11/17 11:55:50;;;;;;;49.00;15.43;;;;;;;13.19;64.33;102022.91;5012651;28;123899;-68
2021/11/17 11:58:26;;;;;;;42.13;15.00;;;;;;;13.24;64.28;102028.91;5012295;28;118556;-69
2021/11/17 12:01:12;;;;;;;48.45;15.50;;;;;;;13.28;64.29;102027.00;5019966;28;119363;-69
2021/11/17 12:04:14;;;;;;;40.95;14.90;;;;;;;13.31;64.26;102030.44;5007909;28;124051;-69
2021/11/17 12:07:08;;;;;;;43.25;15.32;;;;;;;13.36;64.21;102035.63;5019158;28;123575;-69
2021/11/17 12:09:51;;;;;;;50.33;16.42;;;;;;;13.40;64.22;102026.59;5016069;28;119157;-69
2021/11/17 12:12:27;;;;;;;49.95;16.60;;;;;;;13.44;64.36;102023.72;5014094;28;118876;-69
2021/11/17 12:15:26;;;;;;;57.30;17.10;;;;;;;13.50;64.07;102043.06;5018020;28;124212;-69
2021/11/17 12:18:08;;;;;;;53.83;18.20;;;;;;;13.54;64.23;102040.25;5018441;27;122834;-69
2021/11/17 12:20:46;;;;;;;55.03;18.02;;;;;;;13.58;64.26;102035.63;5011847;28;119008;-69
2021/11/17 12:23:20;;;;;;;60.88;18.60;;;;;;;13.62;64.17;102038.16;5018467;28;120217;-69
2021/11/17 12:25:59;;;;;;;55.60;18.80;;;;;;;13.66;64.28;102033.56;5003836;28;123107;-68
2021/11/17 12:28:29;;;;;;;61.55;19.02;;;;;;;13.71;64.28;102031.59;5013503;28;124465;-69
2021/11/17 12:31:05;;;;;;;54.88;19.88;;;;;;;13.76;64.28;102037.59;5020898;28;121750;-68
2021/11/17 12:33:35;;;;;;;56.13;18.98;;;;;;;13.82;64.47;102034.72;5016704;28;120064;-68
2021/11/17 12:36:35;;;;;;;58.83;18.98;;;;;;;13.90;64.18;102046.84;5014722;28;125203;-69
2021/11/17 12:39:16;;;;;;;56.40;19.77;;;;;;;13.96;64.26;102035.97;5013254;28;123872;-69
2021/11/17 12:41:44;;;;;;;59.75;19.55;;;;;;;14.01;64.11;102028.63;5009358;28;119685;-69
2021/11/17 12:44:24;;;;;;;58.17;20.40;;;;;;;14.05;64.18;102035.56;5016175;28;119404;-68
2021/11/17 12:47:13;;;;;;;51.70;18.50;;;;;;;14.09;64.09;102037.19;5016638;28;124521;-68
2021/11/17 12:49:48;;;;;;;54.60;18.65;;;;;;;14.12;63.99;102037.03;5015025;28;124019;-69
2021/11/17 12:52:33;;;;;;;54.40;18.53;;;;;;;14.15;63.89;102039.59;5016908;28;118243;-69
2021/11/17 12:55:18;;;;;;;59.10;18.70;;;;;;;14.17;63.91;102040.41;5014735;28;118850;-69
2021/11/17 12:57:51;;;;;;;45.33;17.77;;;;;;;14.19;63.85;102038.53;5009773;28;124660;-69
2021/11/17 13:00:18;;;;;;;52.88;19.10;;;;;;;14.23;63.78;102041.09;5009818;28;124662;-69
2021/11/17 13:02:57;;;;;;;49.85;18.63;;;;;;;14.24;63.86;102040.13;5019448;28;119346;-69
2021/11/17 13:05:40;;;;;;;54.33;18.38;;;;;;;14.26;63.83;102036.50;5029155;28;119763;-69
2021/11/17 13:08:11;;;;;;;52.17;18.05;;;;;;;14.30;63.72;102045.25;5025056;28;124287;-69
2021/11/17 13:10:43;;;;;;;56.17;18.08;;;;;;;14.35;63.98;102048.56;5015552;28;124254;-69
2021/11/17 13:13:24;;;;;;;52.38;18.55;;;;;;;14.41;64.04;102048.31;5006401;28;118340;-69
2021/11/17 13:15:51;;;;;;;51.70;18.35;;;;;;;14.49;63.98;102050.66;5030940;28;118904;-69
2021/11/17 13:18:43;;;;;;;56.75;19.13;;;;;;;14.56;64.08;102047.66;5021021;28;124010;-68
2021/11/17 13:21:23;;;;;;;53.25;19.00;;;;;;;14.63;63.75;102052.78;5022435;28;123975;-69
2021/11/17 13:23:56;;;;;;;51.55;18.13;;;;;;;14.68;63.85;102050.78;5030842;28;120129;-69
2021/11/17 13:26:32;;;;;;;47.63;17.92;;;;;;;14.72;63.60;102047.03;5026325;28;120761;-69
2021/11/17 13:30:02;;;;;;;46.97;18.48;;;;;;;14.76;63.68;102048.63;5015615;28;124141;-68
2021/11/17 13:32:42;;;;;;;48.13;17.20;;;;;;;14.82;63.43;102056.38;4940003;28;124661;-69
2021/11/17 13:35:31;;;;;;;49.53;17.30;;;;;;;14.85;63.52;102053.56;5030553;28;118317;-68
2021/11/17 13:38:28;;;;;;;42.25;17.02;;;;;;;14.89;63.33;102049.84;5029466;28;118932;-69
2021/11/17 13:41:02;;;;;;;50.40;16.83;;;;;;;14.93;63.19;102055.91;5017789;27;124205;-69
2021/11/17 13:43:30;;;;;;;46.72;16.48;;;;;;;14.96;63.17;102051.31;5028903;28;123076;-69
2021/11/17 13:46:02;;;;;;;43.40;17.10;;;;;;;14.99;63.03;102056.53;5014921;28;119198;-70
2021/11/17 13:48:33;;;;;;;39.88;16.38;;;;;;;14.99;62.84;102059.19;5011703;28;118914;-70
2021/11/17 13:51:05;;;;;;;42.60;16.33;;;;;;;14.98;62.89;102070.78;5023127;28;123764;-69
2021/11/17 13:53:34;;;;;;;42.78;16.67;;;;;;;14.98;62.71;102073.44;5021075;28;123483;-69
2021/11/17 13:56:08;;;;;;;44.35;16.27;;;;;;;14.95;62.73;102068.22;5027975;28;119229;-69
2021/11/17 13:58:36;;;;;;;46.13;15.85;;;;;;;14.96;62.58;102077.13;5012056;28;119032;-69
2021/11/17 14:01:06;;;;;;;42.85;16.42;;;;;;;14.94;62.66;102079.84;5021169;28;124106;-69
2021/11/17 14:03:34;;;;;;;37.63;15.57;;;;;;;14.93;62.65;102083.44;5026659;28;123724;-69
2021/11/17 14:06:05;;;;;;;42.13;15.55;;;;;;;14.92;62.65;102081.72;5019714;28;119126;-69
2021/11/17 14:08:34;;;;;;;42.92;15.73;;;;;;;14.91;62.67;102074.63;5025550;28;118840;-69
2021/11/17 14:11:03;;;;;;;40.42;15.75;;;;;;;14.90;62.59;102072.94;5019550;28;124298;-69
2021/11/17 14:13:31;;;;;;;41.83;16.02;;;;;;;14.89;62.57;102071.19;5021045;28;123797;-69
2021/11/17 14:16:00;;;;;;;41.08;15.73;;;;;;;14.88;62.47;102069.47;5016874;27;120655;-69
2021/11/17 14:18:29;;;;;;;46.92;16.35;;;;;;;14.89;62.63;102070.31;5031269;28;119943;-68
2021/11/17 14:20:57;;;;;;;38.65;16.00;;;;;;;14.89;62.57;102071.19;5013819;28;123994;-68
2021/11/17 14:23:25;;;;;;;38.65;15.82;;;;;;;14.87;62.46;102073.03;5028153;28;123817;-69